createdAt,value
2022-09-15T00:01:24.561Z,12.60
2022-09-15T00:03:52.897Z,12.70
2022-09-15T00:06:20.424Z,12.60
2022-09-15T00:08:48.297Z,12.70
2022-09-15T00:11:24.489Z,12.60
2022-09-15T00:13:53.983Z,12.70
2022-09-15T00:16:24.799Z,12.70
2022-09-15T00:18:53.110Z,12.70
2022-09-15T00:21:25.889Z,12.60
2022-09-15T00:23:54.493Z,12.70
2022-09-15T00:26:26.315Z,12.70
2022-09-15T00:28:56.839Z,12.70
2022-09-15T00:31:27.133Z,12.70
2022-09-15T00:33:57.544Z,12.70
2022-09-15T00:36:27.034Z,12.70
2022-09-15T00:38:55.653Z,12.60
2022-09-15T00:41:24.911Z,12.70
2022-09-15T00:43:56.222Z,12.70
2022-09-15T00:46:32.699Z,12.70
2022-09-15T00:49:25.001Z,12.70
2022-09-15T00:51:59.000Z,12.60
2022-09-15T00:54:58.089Z,12.60
2022-09-15T00:57:40.465Z,12.60
2022-09-15T01:00:13.735Z,12.60
2022-09-15T01:02:44.890Z,12.60
2022-09-15T01:05:17.598Z,12.50
2022-09-15T01:07:51.840Z,12.50
2022-09-15T01:10:34.580Z,12.50
2022-09-15T01:13:10.341Z,12.30
2022-09-15T01:16:07.041Z,12.20
2022-09-15T01:19:34.026Z,12.10
2022-09-15T01:22:35.260Z,11.90
2022-09-15T01:25:43.287Z,11.70
2022-09-15T01:29:00.364Z,11.60
2022-09-15T01:32:16.481Z,11.50
2022-09-15T01:35:17.624Z,11.50
2022-09-15T01:38:23.182Z,11.40
2022-09-15T01:41:34.955Z,11.30
2022-09-15T01:44:10.869Z,11.30
2022-09-15T01:46:47.249Z,11.30
2022-09-15T01:49:27.502Z,11.20
2022-09-15T01:51:55.389Z,11.20
2022-09-15T01:54:34.061Z,11.20
2022-09-15T01:57:03.559Z,11.20
2022-09-15T01:59:31.370Z,11.20
2022-09-15T02:02:10.158Z,11.20
2022-09-15T02:04:47.499Z,11.30
2022-09-15T02:07:45.062Z,11.40
2022-09-15T02:10:33.158Z,11.40
2022-09-15T02:13:22.231Z,11.50
2022-09-15T02:15:57.527Z,11.40
2022-09-15T02:19:08.921Z,11.40
2022-09-15T02:21:53.377Z,11.50
2022-09-15T02:24:32.739Z,11.50
2022-09-15T02:27:02.928Z,11.50
2022-09-15T02:29:36.289Z,11.50
2022-09-15T02:32:07.797Z,11.40
2022-09-15T02:34:42.097Z,11.30
2022-09-15T02:37:11.650Z,11.30
2022-09-15T02:39:47.379Z,11.20
2022-09-15T02:42:32.894Z,11.10
2022-09-15T02:45:01.905Z,11.10
2022-09-15T02:47:32.132Z,11.00
2022-09-15T02:50:00.436Z,11.00
2022-09-15T02:52:28.473Z,11.00
2022-09-15T02:54:56.156Z,10.90
2022-09-15T02:57:24.211Z,10.90
2022-09-15T03:00:10.486Z,10.90
2022-09-15T03:02:39.205Z,10.90
2022-09-15T03:05:09.047Z,10.80
2022-09-15T03:07:40.155Z,10.70
2022-09-15T03:10:10.488Z,10.70
2022-09-15T03:12:47.479Z,10.70
2022-09-15T03:15:19.457Z,10.70
2022-09-15T03:17:48.547Z,10.60
2022-09-15T03:20:21.318Z,10.60
2022-09-15T03:22:50.589Z,10.60
2022-09-15T03:25:18.763Z,10.60
2022-09-15T03:27:46.848Z,10.50
2022-09-15T03:30:15.488Z,10.50
2022-09-15T03:32:43.980Z,10.50
2022-09-15T03:35:11.805Z,10.50
2022-09-15T03:37:39.373Z,10.50
2022-09-15T03:40:08.155Z,10.50
2022-09-15T03:42:35.923Z,10.50
2022-09-15T03:45:03.813Z,10.50
2022-09-15T03:47:34.610Z,10.60
2022-09-15T03:50:02.168Z,10.50
2022-09-15T03:52:32.352Z,10.50
2022-09-15T03:55:00.084Z,10.60
2022-09-15T03:57:27.603Z,10.60
2022-09-15T03:59:55.097Z,10.70
2022-09-15T04:02:23.166Z,10.60
2022-09-15T04:04:50.791Z,10.70
2022-09-15T04:07:18.474Z,10.70
2022-09-15T04:09:46.356Z,10.80
2022-09-15T04:12:14.066Z,10.90
2022-09-15T04:14:41.750Z,10.90
2022-09-15T04:17:10.904Z,11.00
2022-09-15T04:19:38.471Z,11.00
2022-09-15T04:22:06.126Z,10.90
2022-09-15T04:24:33.869Z,10.90
2022-09-15T04:27:01.416Z,10.80
2022-09-15T04:29:29.457Z,10.90
2022-09-15T04:31:57.162Z,10.90
2022-09-15T04:34:25.131Z,10.90
2022-09-15T04:36:52.626Z,10.90
2022-09-15T04:39:20.497Z,10.80
2022-09-15T04:41:48.063Z,10.80
2022-09-15T04:44:15.670Z,10.80
2022-09-15T04:46:43.868Z,10.80
2022-09-15T04:49:11.458Z,10.90
2022-09-15T04:51:39.004Z,10.90
2022-09-15T04:54:06.733Z,10.80
2022-09-15T04:56:34.334Z,11.00
2022-09-15T04:59:04.103Z,11.20
2022-09-15T05:01:37.991Z,11.20
2022-09-15T05:04:05.639Z,11.20
2022-09-15T05:06:35.161Z,11.20
2022-09-15T05:09:10.291Z,11.30
2022-09-15T05:11:38.823Z,11.70
2022-09-15T05:14:07.070Z,12.00
2022-09-15T05:16:34.719Z,12.30
2022-09-15T05:19:05.744Z,12.60
2022-09-15T05:21:33.466Z,12.80
2022-09-15T05:24:01.263Z,12.90
2022-09-15T05:26:30.222Z,13.00
2022-09-15T05:28:58.376Z,13.30
2022-09-15T05:31:31.021Z,13.30
2022-09-15T05:34:03.885Z,13.30
2022-09-15T05:36:32.915Z,13.30
2022-09-15T05:39:01.820Z,13.40
2022-09-15T05:41:29.959Z,13.50
2022-09-15T05:43:58.437Z,13.60
2022-09-15T05:46:52.426Z,13.80
2022-09-15T05:49:19.925Z,14.20
2022-09-15T05:51:47.590Z,15.20
2022-09-15T05:54:15.226Z,15.50
2022-09-15T05:56:42.793Z,15.20
2022-09-15T05:59:10.570Z,15.10
2022-09-15T06:01:38.413Z,15.10
2022-09-15T06:04:06.420Z,15.40
2022-09-15T06:06:34.557Z,15.90
2022-09-15T06:09:07.957Z,15.90
2022-09-15T06:11:36.971Z,15.60
2022-09-15T06:14:06.052Z,15.30
2022-09-15T06:16:35.585Z,15.10
2022-09-15T06:19:04.236Z,15.10
2022-09-15T06:21:33.497Z,15.10
2022-09-15T06:24:07.347Z,15.30
2022-09-15T06:26:35.491Z,15.30
2022-09-15T06:29:05.580Z,15.30
2022-09-15T06:31:35.833Z,15.40
2022-09-15T06:34:05.522Z,15.40
2022-09-15T06:36:33.833Z,15.40
2022-09-15T06:39:01.491Z,15.70
2022-09-15T06:41:38.235Z,15.80
2022-09-15T06:44:24.019Z,15.90
2022-09-15T06:46:51.718Z,16.00
2022-09-15T06:49:20.728Z,16.00
2022-09-15T06:51:48.510Z,16.10
2022-09-15T06:54:16.785Z,16.20
2022-09-15T06:57:16.969Z,16.10
2022-09-15T06:59:56.044Z,16.10
2022-09-15T07:02:35.713Z,16.30
2022-09-15T07:05:37.190Z,16.90
2022-09-15T07:08:37.550Z,17.40
2022-09-15T07:11:15.497Z,17.60
2022-09-15T07:14:16.065Z,17.70
2022-09-15T07:17:06.701Z,17.10
2022-09-15T07:19:38.736Z,16.90
2022-09-15T07:22:06.469Z,17.10
2022-09-15T07:24:34.301Z,17.00
2022-09-15T07:27:03.297Z,18.00
2022-09-15T07:29:37.088Z,19.30
2022-09-15T07:32:06.200Z,19.80
2022-09-15T07:34:34.136Z,20.60
2022-09-15T07:37:07.473Z,21.90
2022-09-15T07:39:39.815Z,22.40
2022-09-15T07:42:07.921Z,22.40
2022-09-15T07:44:35.745Z,22.10
2022-09-15T07:47:03.999Z,21.90
2022-09-15T07:49:31.951Z,21.60
2022-09-15T07:52:00.745Z,21.10
2022-09-15T07:54:28.611Z,20.20
2022-09-15T07:56:56.140Z,20.00
2022-09-15T07:59:24.042Z,20.60
2022-09-15T08:01:52.421Z,22.20
2022-09-15T08:04:21.901Z,22.70
2022-09-15T08:07:04.348Z,22.60
2022-09-15T08:09:42.287Z,22.10
2022-09-15T08:12:11.526Z,21.20
2022-09-15T08:14:41.128Z,20.30
2022-09-15T08:17:11.671Z,19.40
2022-09-15T08:19:39.906Z,19.00
2022-09-15T08:22:07.545Z,18.60
2022-09-15T08:24:35.230Z,18.50
2022-09-15T08:27:03.433Z,18.30
2022-09-15T08:29:31.186Z,18.40
2022-09-15T08:31:59.012Z,18.40
2022-09-15T08:34:29.668Z,18.90
2022-09-15T08:36:57.287Z,19.50
2022-09-15T08:39:24.790Z,20.30
2022-09-15T08:41:55.239Z,20.70
2022-09-15T08:45:01.801Z,21.00
2022-09-15T08:47:40.516Z,21.30
2022-09-15T08:50:32.162Z,21.40
2022-09-15T08:53:20.262Z,21.80
2022-09-15T08:55:59.275Z,22.40
2022-09-15T08:58:32.390Z,23.30
2022-09-15T09:01:25.255Z,23.50
2022-09-15T09:05:12.189Z,23.90
2022-09-15T09:08:24.133Z,25.30
2022-09-15T09:10:54.456Z,25.90
2022-09-15T09:13:59.308Z,24.40
2022-09-15T09:17:10.850Z,23.30
2022-09-15T09:20:29.737Z,23.10
2022-09-15T09:23:01.401Z,23.20
2022-09-15T09:25:29.892Z,23.60
2022-09-15T09:28:04.656Z,24.10
2022-09-15T09:30:36.367Z,23.80
2022-09-15T09:33:31.245Z,24.40
2022-09-15T09:36:02.607Z,25.90
2022-09-15T09:38:43.840Z,26.50
2022-09-15T09:41:26.979Z,26.40
2022-09-15T09:43:56.788Z,25.70
2022-09-15T09:46:24.761Z,26.40
2022-09-15T09:49:23.289Z,26.90
2022-09-15T09:52:00.247Z,26.80
2022-09-15T09:54:31.705Z,25.70
2022-09-15T09:57:22.365Z,24.40
2022-09-15T09:59:52.029Z,25.00
2022-09-15T10:02:24.942Z,24.60
2022-09-15T10:05:12.353Z,24.70
2022-09-15T10:07:44.027Z,25.60
2022-09-15T10:10:32.477Z,24.70
2022-09-15T10:13:03.623Z,24.00
2022-09-15T10:15:35.594Z,23.40
2022-09-15T10:18:04.090Z,23.00
2022-09-15T10:20:46.249Z,23.80
2022-09-15T10:23:17.896Z,24.20
2022-09-15T10:26:01.583Z,24.10
2022-09-15T10:28:30.010Z,23.00
2022-09-15T10:31:03.528Z,22.80
2022-09-15T10:33:45.412Z,22.20
2022-09-15T10:36:31.903Z,21.50
2022-09-15T10:39:24.185Z,20.60
2022-09-15T10:42:13.551Z,19.90
2022-09-15T10:45:11.505Z,21.10
2022-09-15T10:48:26.354Z,25.60
2022-09-15T10:51:21.964Z,29.70
2022-09-15T10:54:16.600Z,31.00
2022-09-15T10:56:52.457Z,30.80
2022-09-15T10:59:53.623Z,30.20
2022-09-15T11:02:39.886Z,30.40
2022-09-15T11:05:36.276Z,29.70
2022-09-15T11:08:37.964Z,28.10
2022-09-15T11:11:29.523Z,28.80
2022-09-15T11:14:12.493Z,29.20
2022-09-15T11:17:29.902Z,26.30
2022-09-15T11:20:49.734Z,24.40
2022-09-15T11:23:28.506Z,22.50
2022-09-15T11:26:07.886Z,21.00
2022-09-15T11:28:59.960Z,19.90
2022-09-15T11:31:38.808Z,19.00
2022-09-15T11:34:19.774Z,18.10
2022-09-15T11:37:04.770Z,17.40
2022-09-15T11:40:04.579Z,16.90
2022-09-15T11:42:41.657Z,16.60
2022-09-15T11:45:25.819Z,16.70
2022-09-15T11:48:06.117Z,17.80
2022-09-15T11:50:41.613Z,18.50
2022-09-15T11:53:41.853Z,18.90
2022-09-15T11:56:23.880Z,18.70
2022-09-15T11:59:09.920Z,18.40
2022-09-15T12:02:14.985Z,18.10
2022-09-15T12:05:32.085Z,17.90
2022-09-15T12:08:27.614Z,18.10
2022-09-15T12:11:00.093Z,18.40
2022-09-15T12:13:29.351Z,18.80
2022-09-15T12:15:57.674Z,19.10
2022-09-15T12:18:48.924Z,19.40
2022-09-15T12:21:26.413Z,20.00
2022-09-15T12:24:31.129Z,20.50
2022-09-15T12:27:02.551Z,20.90
2022-09-15T12:29:41.198Z,20.80
2022-09-15T12:32:32.163Z,20.70
2022-09-15T12:35:02.814Z,21.30
2022-09-15T12:37:47.379Z,21.80
2022-09-15T12:40:35.881Z,22.70
2022-09-15T12:43:21.297Z,25.00
2022-09-15T12:46:01.601Z,27.20
2022-09-15T12:48:34.817Z,28.40
2022-09-15T12:51:12.863Z,28.20
2022-09-15T12:53:58.363Z,27.10
2022-09-15T12:56:32.659Z,25.50
2022-09-15T12:59:14.064Z,24.60
2022-09-15T13:01:50.493Z,24.10
2022-09-15T13:04:44.003Z,24.00
2022-09-15T13:07:18.642Z,23.40
2022-09-15T13:10:18.846Z,22.50
2022-09-15T13:12:59.752Z,22.30
2022-09-15T13:15:29.690Z,21.90
2022-09-15T13:17:58.604Z,22.30
2022-09-15T13:20:35.912Z,22.10
2022-09-15T13:23:10.236Z,22.10
2022-09-15T13:25:44.946Z,22.40
2022-09-15T13:31:06.608Z,25.80
2022-09-15T13:40:34.470Z,30.10
2022-09-15T13:43:44.472Z,31.10
2022-09-15T13:46:29.763Z,30.80
2022-09-15T13:49:34.482Z,30.90
2022-09-15T13:52:29.385Z,30.50
2022-09-15T13:55:23.198Z,29.80
2022-09-15T14:00:55.463Z,27.70
2022-09-15T14:03:53.783Z,25.30
2022-09-15T14:06:35.527Z,23.30
2022-09-15T14:09:18.773Z,22.90
2022-09-15T14:11:54.550Z,22.80
2022-09-15T14:14:34.823Z,24.60
2022-09-15T14:17:04.524Z,25.10
2022-09-15T14:19:36.639Z,24.40
2022-09-15T14:22:28.196Z,23.90
2022-09-15T14:24:59.753Z,24.80
2022-09-15T14:27:33.883Z,26.20
2022-09-15T14:30:38.100Z,27.30
2022-09-15T14:33:18.449Z,27.10
2022-09-15T14:35:47.262Z,25.10
2022-09-15T14:38:25.593Z,23.40
2022-09-15T14:40:57.034Z,22.90
2022-09-15T14:43:36.256Z,23.10
2022-09-15T14:46:21.239Z,24.10
2022-09-15T14:49:13.597Z,24.70
2022-09-15T14:51:48.489Z,24.70
2022-09-15T14:54:28.176Z,23.60
2022-09-15T14:57:01.890Z,22.80
2022-09-15T14:59:52.976Z,21.80
2022-09-15T15:03:00.573Z,22.20
2022-09-15T15:05:41.815Z,23.00
2022-09-15T15:08:33.035Z,23.30
2022-09-15T15:11:02.460Z,23.20
2022-09-15T15:13:32.142Z,22.70
2022-09-15T15:16:19.029Z,22.10
2022-09-15T15:18:47.644Z,21.60
2022-09-15T15:21:41.707Z,21.30
2022-09-15T15:24:17.014Z,20.90
2022-09-15T15:26:50.587Z,20.30
2022-09-15T15:29:44.622Z,20.00
2022-09-15T15:32:30.683Z,19.80
2022-09-15T15:35:04.437Z,19.40
2022-09-15T15:37:35.503Z,19.00
2022-09-15T15:40:07.590Z,18.60
2022-09-15T15:42:35.840Z,18.40
2022-09-15T15:45:10.116Z,18.10
2022-09-15T15:47:40.148Z,17.60
2022-09-15T15:50:25.659Z,17.40
2022-09-15T15:52:54.656Z,17.20
2022-09-15T15:55:36.419Z,17.10
2022-09-15T15:58:05.273Z,16.90
2022-09-15T16:00:54.323Z,16.70
2022-09-15T16:03:32.724Z,16.50
2022-09-15T16:06:11.930Z,16.30
2022-09-15T16:08:53.912Z,16.10
2022-09-15T16:11:22.157Z,15.90
2022-09-15T16:13:50.322Z,15.70
2022-09-15T16:16:23.885Z,15.50
2022-09-15T16:18:52.771Z,15.20
2022-09-15T16:21:38.679Z,15.10
2022-09-15T16:24:13.232Z,14.90
2022-09-15T16:26:42.230Z,14.70
2022-09-15T16:29:11.564Z,14.50
2022-09-15T16:31:43.801Z,14.30
2022-09-15T16:34:17.872Z,14.20
2022-09-15T16:36:46.904Z,14.10
2022-09-15T16:39:15.592Z,14.00
2022-09-15T16:41:43.623Z,13.80
2022-09-15T16:44:20.485Z,13.70
2022-09-15T16:46:48.954Z,13.60
2022-09-15T16:49:18.196Z,13.50
2022-09-15T16:51:46.998Z,13.50
2022-09-15T16:54:20.778Z,13.40
2022-09-15T16:56:49.672Z,13.30
2022-09-15T16:59:18.739Z,13.10
2022-09-15T17:01:47.512Z,13.00
2022-09-15T17:04:17.408Z,13.00
2022-09-15T17:06:45.912Z,12.80
2022-09-15T17:09:15.632Z,12.80
2022-09-15T17:11:43.632Z,12.70
2022-09-15T17:14:17.155Z,12.60
2022-09-15T17:16:48.091Z,12.50
2022-09-15T17:19:17.315Z,12.40
2022-09-15T17:21:46.847Z,12.30
2022-09-15T17:24:15.810Z,12.20
2022-09-15T17:26:44.883Z,12.10
2022-09-15T17:29:13.862Z,12.00
2022-09-15T17:31:42.414Z,12.00
2022-09-15T17:34:15.498Z,11.90
2022-09-15T17:36:43.728Z,11.80
2022-09-15T17:39:12.314Z,11.70
2022-09-15T17:41:40.693Z,11.60
2022-09-15T17:44:11.704Z,11.50
2022-09-15T17:46:41.009Z,11.50
2022-09-15T17:49:09.393Z,11.50
2022-09-15T17:51:37.673Z,11.40
2022-09-15T17:54:09.421Z,11.40
2022-09-15T17:56:38.279Z,11.30
2022-09-15T17:59:07.856Z,11.20
2022-09-15T18:01:36.284Z,11.20
2022-09-15T18:04:04.838Z,11.20
2022-09-15T18:06:33.882Z,11.10
2022-09-15T18:09:02.383Z,11.10
2022-09-15T18:11:31.463Z,11.00
2022-09-15T18:14:00.680Z,10.90
2022-09-15T18:16:29.012Z,10.90
2022-09-15T18:18:57.435Z,10.90
2022-09-15T18:21:30.604Z,10.80
2022-09-15T18:24:00.104Z,10.80
2022-09-15T18:26:30.366Z,10.80
2022-09-15T18:28:59.691Z,10.80
2022-09-15T18:31:29.850Z,10.70
2022-09-15T18:34:00.448Z,10.70
2022-09-15T18:36:29.511Z,10.70
2022-09-15T18:38:58.251Z,10.60
2022-09-15T18:41:28.403Z,10.60
2022-09-15T18:43:57.120Z,10.60
2022-09-15T18:46:27.161Z,10.60
2022-09-15T18:48:57.025Z,10.60
2022-09-15T18:51:40.964Z,10.70
2022-09-15T18:54:19.443Z,10.60
2022-09-15T18:56:49.144Z,10.60
2022-09-15T18:59:20.463Z,10.60
2022-09-15T19:01:51.814Z,10.60
2022-09-15T19:04:21.010Z,10.60
2022-09-15T19:06:50.571Z,10.50
2022-09-15T19:09:20.421Z,10.60
2022-09-15T19:11:49.589Z,10.60
2022-09-15T19:14:18.018Z,10.50
2022-09-15T19:16:57.712Z,10.60
2022-09-15T19:19:27.630Z,10.50
2022-09-15T19:21:55.991Z,10.50
2022-09-15T19:24:26.706Z,10.50
2022-09-15T19:26:56.504Z,10.50
2022-09-15T19:29:24.424Z,10.40
2022-09-15T19:31:53.624Z,10.30
2022-09-15T19:34:22.302Z,10.30
2022-09-15T19:36:50.660Z,10.30
2022-09-15T19:39:18.586Z,10.20
2022-09-15T19:41:47.924Z,10.20
2022-09-15T19:44:16.449Z,10.10
2022-09-15T19:46:44.410Z,10.10
2022-09-15T19:49:14.994Z,10.00
2022-09-15T19:51:42.802Z,10.00
2022-09-15T19:54:11.385Z,10.00
2022-09-15T19:56:39.633Z,9.90
2022-09-15T19:59:07.868Z,10.00
2022-09-15T20:01:35.941Z,10.10
2022-09-15T20:04:07.485Z,10.10
2022-09-15T20:07:06.666Z,10.10
2022-09-15T20:09:35.921Z,10.10
2022-09-15T20:12:05.505Z,10.10
2022-09-15T20:14:33.675Z,10.20
2022-09-15T20:17:02.138Z,10.20
2022-09-15T20:19:31.331Z,10.20
2022-09-15T20:21:59.627Z,10.20
2022-09-15T20:24:28.978Z,10.20
2022-09-15T20:26:59.580Z,10.20
2022-09-15T20:29:28.746Z,10.20
2022-09-15T20:31:58.755Z,10.20
2022-09-15T20:34:28.615Z,10.30
2022-09-15T20:36:57.510Z,10.40
2022-09-15T20:39:26.640Z,10.30
2022-09-15T20:41:55.760Z,10.30
2022-09-15T20:44:24.142Z,10.30
2022-09-15T20:46:52.515Z,10.30
2022-09-15T20:49:21.317Z,10.40
2022-09-15T20:51:52.312Z,10.40
2022-09-15T20:54:20.766Z,10.40
2022-09-15T20:56:48.881Z,10.40
2022-09-15T20:59:17.439Z,10.30
2022-09-15T21:01:45.418Z,10.30
2022-09-15T21:04:13.886Z,10.40
2022-09-15T21:06:42.183Z,10.50
2022-09-15T21:09:10.758Z,10.60
2022-09-15T21:11:39.589Z,10.60
2022-09-15T21:14:07.690Z,10.70
2022-09-15T21:16:35.539Z,10.70
2022-09-15T21:19:04.445Z,10.80
2022-09-15T21:21:33.830Z,10.90
2022-09-15T21:24:06.228Z,10.90
2022-09-15T21:26:59.102Z,10.80
2022-09-15T21:29:28.601Z,10.70
2022-09-15T21:31:56.532Z,10.50
2022-09-15T21:34:24.524Z,10.50
2022-09-15T21:36:53.834Z,10.60
2022-09-15T21:39:21.646Z,10.70
2022-09-15T21:41:50.196Z,10.70
2022-09-15T21:44:18.308Z,10.70
2022-09-15T21:46:47.391Z,10.80
2022-09-15T21:49:15.403Z,10.80
2022-09-15T21:51:43.158Z,10.90
2022-09-15T21:54:10.967Z,10.90
2022-09-15T21:56:38.752Z,10.80
2022-09-15T21:59:09.195Z,10.90
2022-09-15T22:01:37.066Z,11.00
2022-09-15T22:04:08.010Z,10.90
2022-09-15T22:06:40.801Z,10.90
2022-09-15T22:09:22.090Z,10.90
2022-09-15T22:11:50.042Z,10.90
2022-09-15T22:14:18.152Z,10.80
2022-09-15T22:16:45.842Z,10.80
2022-09-15T22:19:13.805Z,10.60
2022-09-15T22:21:42.150Z,10.60
2022-09-15T22:24:13.061Z,10.50
2022-09-15T22:26:43.054Z,10.50
2022-09-15T22:29:11.702Z,10.40
2022-09-15T22:31:39.563Z,10.40
2022-09-15T22:34:07.410Z,10.30
2022-09-15T22:36:35.479Z,10.30
2022-09-15T22:39:05.282Z,10.20
2022-09-15T22:41:37.984Z,10.20
2022-09-15T22:44:07.910Z,10.00
2022-09-15T22:46:35.881Z,10.00
2022-09-15T22:49:03.718Z,9.90
2022-09-15T22:51:31.265Z,9.90
2022-09-15T22:53:59.723Z,9.90
2022-09-15T22:56:27.266Z,9.90
2022-09-15T22:58:56.753Z,9.90
2022-09-15T23:01:30.773Z,9.80
2022-09-15T23:04:03.039Z,9.80
2022-09-15T23:06:34.676Z,9.80
2022-09-15T23:09:12.832Z,9.80
2022-09-15T23:11:40.991Z,9.80
2022-09-15T23:14:15.566Z,9.80
2022-09-15T23:16:44.088Z,9.70
2022-09-15T23:19:14.698Z,9.80
2022-09-15T23:21:42.539Z,9.90
2022-09-15T23:24:12.598Z,9.90
2022-09-15T23:26:40.525Z,9.80
2022-09-15T23:29:08.184Z,9.90
2022-09-15T23:31:36.180Z,9.90
2022-09-15T23:34:04.004Z,9.90
2022-09-15T23:36:31.750Z,10.00
2022-09-15T23:38:59.503Z,10.00
2022-09-15T23:41:27.110Z,9.90
2022-09-15T23:43:55.673Z,9.90
2022-09-15T23:46:23.492Z,9.80
2022-09-15T23:48:51.202Z,9.80
2022-09-15T23:51:18.831Z,9.70
2022-09-15T23:53:46.973Z,9.70
2022-09-15T23:56:14.773Z,9.80
2022-09-15T23:58:42.420Z,9.80
